This is the latest recevied weather packets stored in our database for station/object N1YZ. If no packets are shown the sender has not sent any weather packets the latest 10 day(s).
| Time | Temp. | Humidity | Pressure | Rain* | Wind** | Luminosity | Snow |
|---|---|---|---|---|---|---|---|
| 1788144455 | 26.67° C | 82% | 1038.2 hPa | 0 mm | - | 0 W/m² | - |
| 1788144153 | 26.67° C | 82% | 1038 hPa | 0 mm | - | 0 W/m² | - |
| 1788143852 | 26.67° C | 83% | 1038 hPa | 0 mm | - | 0 W/m² | - |
| 1788143551 | 26.67° C | 83% | 1038.1 hPa | 0 mm | - | 0 W/m² | - |
| 1788143247 | 26.67° C | 83% | 1038.1 hPa | 0 mm | - | 0 W/m² | - |
| 1788142941 | 26.67° C | 82% | 1038 hPa | 0 mm | - | 0 W/m² | - |
| 1788142641 | 26.67° C | 82% | 1038 hPa | 0 mm | - | 0 W/m² | - |
| 1788142335 | 26.67° C | 81% | 1038.2 hPa | 0 mm | - | 0 W/m² | - |
| 1788142032 | 26.67° C | 81% | 1037.9 hPa | 0 mm | - | 0 W/m² | - |
| 1788141731 | 27.22° C | 81% | 1038 hPa | 0 mm | - | 0 W/m² | - |
| 1788123507 | 31.67° C | 65% | 1037.3 hPa | 0 mm | - | 44 W/m² | - |
| 1788122600 | 31.67° C | 65% | 1037.3 hPa | 0 mm | - | 70 W/m² | - |
| 1788122296 | 31.11° C | 64% | 1037.3 hPa | 0 mm | - | 94 W/m² | - |
| 1788121992 | 31.11° C | 64% | 1037.5 hPa | 0 mm | - | 77 W/m² | - |
| 1788121691 | 31.11° C | 68% | 1037.7 hPa | 0 mm | - | 53 W/m² | - |
| 1788120471 | 31.67° C | 67% | 1037.9 hPa | 0 mm | - | 95 W/m² | - |
| 1788120170 | 31.67° C | 66% | 1037.8 hPa | 0 mm | - | 73 W/m² | - |
| 1788119565 | 31.67° C | 66% | 1037.9 hPa | 0 mm | - | 126 W/m² | - |
| 1788119263 | 31.11° C | 68% | 1038.1 hPa | 0 mm | - | 88 W/m² | - |
| 1788118658 | 30.56° C | 66% | 1038.3 hPa | 0 mm | - | 125 W/m² | - |
| 1788118352 | 31.11° C | 69% | 1038.4 hPa | 0 mm | - | 95 W/m² | - |
| 1788118048 | 31.67° C | 65% | 1038.4 hPa | 0 mm | - | 171 W/m² | - |
| 1788117743 | 31.11° C | 70% | 1038.3 hPa | 0 mm | - | 110 W/m² | - |
| 1788117439 | 31.11° C | 68% | 1038.2 hPa | 0 mm | - | 140 W/m² | - |
| 1788117138 | 31.11° C | 68% | 1038 hPa | 0 mm | - | 106 W/m² | - |
* Rain latest hour (hover to see other rain measurements)
** Current wind speed in m/s (hover to see current wind gust speed)